sensor_id;sensor_type;location;lat;lon;timestamp;temperature;humidity
10536;DHT22;5316;49.538;8.352;2022-12-07T00:00:19;4.40;99.90
10536;DHT22;5316;49.538;8.352;2022-12-07T00:02:46;4.40;99.90
10536;DHT22;5316;49.538;8.352;2022-12-07T00:05:12;4.50;99.90
10536;DHT22;5316;49.538;8.352;2022-12-07T00:07:39;4.50;99.90
10536;DHT22;5316;49.538;8.352;2022-12-07T00:10:08;4.50;99.90
10536;DHT22;5316;49.538;8.352;2022-12-07T00:12:35;4.50;99.90
10536;DHT22;5316;49.538;8.352;2022-12-07T00:15:02;4.50;99.90
10536;DHT22;5316;49.538;8.352;2022-12-07T00:17:29;4.50;99.90
10536;DHT22;5316;49.538;8.352;2022-12-07T00:19:56;4.50;99.90
10536;DHT22;5316;49.538;8.352;2022-12-07T00:22:22;4.50;99.90
10536;DHT22;5316;49.538;8.352;2022-12-07T00:24:49;4.50;99.90
10536;DHT22;5316;49.538;8.352;2022-12-07T00:27:17;4.50;99.90
10536;DHT22;5316;49.538;8.352;2022-12-07T00:29:44;4.50;99.90
10536;DHT22;5316;49.538;8.352;2022-12-07T00:32:11;4.50;99.90
10536;DHT22;5316;49.538;8.352;2022-12-07T00:34:38;4.60;99.90
10536;DHT22;5316;49.538;8.352;2022-12-07T00:37:04;4.60;99.90
10536;DHT22;5316;49.538;8.352;2022-12-07T00:39:31;4.60;99.90
10536;DHT22;5316;49.538;8.352;2022-12-07T00:41:58;4.60;99.90
10536;DHT22;5316;49.538;8.352;2022-12-07T00:44:26;4.60;99.90
10536;DHT22;5316;49.538;8.352;2022-12-07T00:46:53;4.60;99.90
10536;DHT22;5316;49.538;8.352;2022-12-07T00:49:21;4.50;99.90
10536;DHT22;5316;49.538;8.352;2022-12-07T00:51:48;4.50;99.90
10536;DHT22;5316;49.538;8.352;2022-12-07T00:54:15;4.60;99.90
10536;DHT22;5316;49.538;8.352;2022-12-07T00:56:43;4.60;99.90
10536;DHT22;5316;49.538;8.352;2022-12-07T00:59:12;4.50;99.90
10536;DHT22;5316;49.538;8.352;2022-12-07T01:01:41;4.50;99.90
10536;DHT22;5316;49.538;8.352;2022-12-07T01:04:08;4.50;99.90
10536;DHT22;5316;49.538;8.352;2022-12-07T01:06:35;4.50;99.90
10536;DHT22;5316;49.538;8.352;2022-12-07T01:09:02;4.50;99.90
10536;DHT22;5316;49.538;8.352;2022-12-07T01:11:30;4.50;99.90
10536;DHT22;5316;49.538;8.352;2022-12-07T01:13:58;4.50;99.90
10536;DHT22;5316;49.538;8.352;2022-12-07T01:16:27;4.50;99.90
10536;DHT22;5316;49.538;8.352;2022-12-07T01:18:56;4.50;99.90
10536;DHT22;5316;49.538;8.352;2022-12-07T01:21:25;4.40;99.90
10536;DHT22;5316;49.538;8.352;2022-12-07T01:23:52;4.50;99.90
10536;DHT22;5316;49.538;8.352;2022-12-07T01:26:23;4.50;99.90
10536;DHT22;5316;49.538;8.352;2022-12-07T01:28:51;4.50;99.90
10536;DHT22;5316;49.538;8.352;2022-12-07T01:31:22;4.60;99.90
10536;DHT22;5316;49.538;8.352;2022-12-07T01:33:50;4.50;99.90
10536;DHT22;5316;49.538;8.352;2022-12-07T01:36:21;4.60;99.90
10536;DHT22;5316;49.538;8.352;2022-12-07T01:38:50;4.50;99.90
10536;DHT22;5316;49.538;8.352;2022-12-07T01:41:19;4.50;99.90
10536;DHT22;5316;49.538;8.352;2022-12-07T01:44:11;4.50;99.90
10536;DHT22;5316;49.538;8.352;2022-12-07T01:46:38;4.50;99.90
10536;DHT22;5316;49.538;8.352;2022-12-07T01:49:08;4.50;99.90
10536;DHT22;5316;49.538;8.352;2022-12-07T01:51:38;4.50;99.90
10536;DHT22;5316;49.538;8.352;2022-12-07T01:54:07;4.60;99.90
10536;DHT22;5316;49.538;8.352;2022-12-07T01:56:34;4.50;99.90
10536;DHT22;5316;49.538;8.352;2022-12-07T01:59:01;4.60;99.90
10536;DHT22;5316;49.538;8.352;2022-12-07T02:01:28;4.60;99.90
10536;DHT22;5316;49.538;8.352;2022-12-07T02:03:55;4.60;99.90
10536;DHT22;5316;49.538;8.352;2022-12-07T02:06:24;4.50;99.90
10536;DHT22;5316;49.538;8.352;2022-12-07T02:08:53;4.60;99.90
10536;DHT22;5316;49.538;8.352;2022-12-07T02:11:20;4.50;99.90
10536;DHT22;5316;49.538;8.352;2022-12-07T02:13:47;4.60;99.90
10536;DHT22;5316;49.538;8.352;2022-12-07T02:16:25;4.60;99.90
10536;DHT22;5316;49.538;8.352;2022-12-07T02:19:04;4.60;99.90
10536;DHT22;5316;49.538;8.352;2022-12-07T02:21:42;4.50;99.90
10536;DHT22;5316;49.538;8.352;2022-12-07T02:24:24;4.50;99.90
10536;DHT22;5316;49.538;8.352;2022-12-07T02:27:27;4.50;99.90
10536;DHT22;5316;49.538;8.352;2022-12-07T02:29:59;4.40;99.90
10536;DHT22;5316;49.538;8.352;2022-12-07T02:32:34;4.40;99.90
10536;DHT22;5316;49.538;8.352;2022-12-07T02:35:07;4.30;99.90
10536;DHT22;5316;49.538;8.352;2022-12-07T02:37:40;4.30;99.90
10536;DHT22;5316;49.538;8.352;2022-12-07T02:40:12;4.30;99.90
10536;DHT22;5316;49.538;8.352;2022-12-07T02:42:45;4.20;99.90
10536;DHT22;5316;49.538;8.352;2022-12-07T02:45:18;4.20;99.90
10536;DHT22;5316;49.538;8.352;2022-12-07T02:47:49;4.20;99.90
10536;DHT22;5316;49.538;8.352;2022-12-07T02:50:18;4.20;99.90
10536;DHT22;5316;49.538;8.352;2022-12-07T02:52:45;4.20;99.90
10536;DHT22;5316;49.538;8.352;2022-12-07T02:55:13;4.20;99.90
10536;DHT22;5316;49.538;8.352;2022-12-07T02:57:53;4.30;99.90
10536;DHT22;5316;49.538;8.352;2022-12-07T03:00:22;4.30;99.90
10536;DHT22;5316;49.538;8.352;2022-12-07T03:02:55;4.30;99.90
10536;DHT22;5316;49.538;8.352;2022-12-07T03:05:37;4.30;99.90
10536;DHT22;5316;49.538;8.352;2022-12-07T03:08:15;4.30;99.90
10536;DHT22;5316;49.538;8.352;2022-12-07T03:10:53;4.30;99.90
10536;DHT22;5316;49.538;8.352;2022-12-07T03:13:24;4.30;99.90
10536;DHT22;5316;49.538;8.352;2022-12-07T03:15:56;4.30;99.90
10536;DHT22;5316;49.538;8.352;2022-12-07T03:18:25;4.30;99.90
10536;DHT22;5316;49.538;8.352;2022-12-07T03:20:57;4.30;99.90
10536;DHT22;5316;49.538;8.352;2022-12-07T03:23:25;4.30;99.90
10536;DHT22;5316;49.538;8.352;2022-12-07T03:25:56;4.30;99.90
10536;DHT22;5316;49.538;8.352;2022-12-07T03:28:28;4.30;99.90
10536;DHT22;5316;49.538;8.352;2022-12-07T03:31:02;4.40;99.90
10536;DHT22;5316;49.538;8.352;2022-12-07T03:33:35;4.40;99.90
10536;DHT22;5316;49.538;8.352;2022-12-07T03:36:06;4.40;99.90
10536;DHT22;5316;49.538;8.352;2022-12-07T03:38:38;4.40;99.90
10536;DHT22;5316;49.538;8.352;2022-12-07T03:41:10;4.40;99.90
10536;DHT22;5316;49.538;8.352;2022-12-07T03:43:39;4.40;99.90
10536;DHT22;5316;49.538;8.352;2022-12-07T03:46:16;4.40;99.90
10536;DHT22;5316;49.538;8.352;2022-12-07T03:48:49;4.40;99.90
10536;DHT22;5316;49.538;8.352;2022-12-07T03:51:22;4.40;99.90
10536;DHT22;5316;49.538;8.352;2022-12-07T03:53:54;4.40;99.90
10536;DHT22;5316;49.538;8.352;2022-12-07T03:56:21;4.40;99.90
10536;DHT22;5316;49.538;8.352;2022-12-07T03:58:49;4.40;99.90
10536;DHT22;5316;49.538;8.352;2022-12-07T04:01:19;4.40;99.90
10536;DHT22;5316;49.538;8.352;2022-12-07T04:03:45;4.40;99.90
10536;DHT22;5316;49.538;8.352;2022-12-07T04:06:12;4.40;99.90
10536;DHT22;5316;49.538;8.352;2022-12-07T04:08:39;4.40;99.90
10536;DHT22;5316;49.538;8.352;2022-12-07T04:11:07;4.40;99.90
10536;DHT22;5316;49.538;8.352;2022-12-07T04:13:34;4.40;99.90
10536;DHT22;5316;49.538;8.352;2022-12-07T04:16:22;4.50;99.90
10536;DHT22;5316;49.538;8.352;2022-12-07T04:18:49;4.50;99.90
10536;DHT22;5316;49.538;8.352;2022-12-07T04:21:16;4.50;99.90
10536;DHT22;5316;49.538;8.352;2022-12-07T04:23:42;4.50;99.90
10536;DHT22;5316;49.538;8.352;2022-12-07T04:26:09;4.50;99.90
10536;DHT22;5316;49.538;8.352;2022-12-07T04:28:36;4.50;99.90
10536;DHT22;5316;49.538;8.352;2022-12-07T04:31:03;4.50;99.90
10536;DHT22;5316;49.538;8.352;2022-12-07T04:33:31;4.50;99.90
10536;DHT22;5316;49.538;8.352;2022-12-07T04:35:58;4.50;99.90
10536;DHT22;5316;49.538;8.352;2022-12-07T04:38:35;4.50;99.90
10536;DHT22;5316;49.538;8.352;2022-12-07T04:41:04;4.50;99.90
10536;DHT22;5316;49.538;8.352;2022-12-07T04:43:32;4.50;99.90
10536;DHT22;5316;49.538;8.352;2022-12-07T04:45:59;4.50;99.90
10536;DHT22;5316;49.538;8.352;2022-12-07T04:48:26;4.50;99.90
10536;DHT22;5316;49.538;8.352;2022-12-07T04:50:54;4.50;99.90
10536;DHT22;5316;49.538;8.352;2022-12-07T04:53:21;4.50;99.90
10536;DHT22;5316;49.538;8.352;2022-12-07T04:55:47;4.50;99.90
10536;DHT22;5316;49.538;8.352;2022-12-07T04:58:14;4.50;99.90
10536;DHT22;5316;49.538;8.352;2022-12-07T05:00:41;4.60;99.90
10536;DHT22;5316;49.538;8.352;2022-12-07T05:03:08;4.60;99.90
10536;DHT22;5316;49.538;8.352;2022-12-07T05:05:35;4.60;99.90
10536;DHT22;5316;49.538;8.352;2022-12-07T05:08:03;4.60;99.90
10536;DHT22;5316;49.538;8.352;2022-12-07T05:10:30;4.60;99.90
10536;DHT22;5316;49.538;8.352;2022-12-07T05:12:57;4.60;99.90
10536;DHT22;5316;49.538;8.352;2022-12-07T05:15:23;4.60;99.90
10536;DHT22;5316;49.538;8.352;2022-12-07T05:17:50;4.70;99.90
10536;DHT22;5316;49.538;8.352;2022-12-07T05:20:17;4.70;99.90
10536;DHT22;5316;49.538;8.352;2022-12-07T05:22:44;4.70;99.90
10536;DHT22;5316;49.538;8.352;2022-12-07T05:25:13;4.70;99.90
10536;DHT22;5316;49.538;8.352;2022-12-07T05:27:40;4.70;99.90
10536;DHT22;5316;49.538;8.352;2022-12-07T05:30:07;4.70;99.90
10536;DHT22;5316;49.538;8.352;2022-12-07T05:32:34;4.70;99.90
10536;DHT22;5316;49.538;8.352;2022-12-07T05:35:01;4.70;99.90
10536;DHT22;5316;49.538;8.352;2022-12-07T05:37:28;4.70;99.90
10536;DHT22;5316;49.538;8.352;2022-12-07T05:39:54;4.70;99.90
10536;DHT22;5316;49.538;8.352;2022-12-07T05:42:22;4.70;99.90
10536;DHT22;5316;49.538;8.352;2022-12-07T05:44:49;4.70;99.90
10536;DHT22;5316;49.538;8.352;2022-12-07T05:47:17;4.70;99.90
10536;DHT22;5316;49.538;8.352;2022-12-07T05:49:44;4.70;99.90
10536;DHT22;5316;49.538;8.352;2022-12-07T05:52:12;4.70;99.90
10536;DHT22;5316;49.538;8.352;2022-12-07T05:54:39;4.70;99.90
10536;DHT22;5316;49.538;8.352;2022-12-07T05:57:06;4.70;99.90
10536;DHT22;5316;49.538;8.352;2022-12-07T05:59:35;4.80;99.90
10536;DHT22;5316;49.538;8.352;2022-12-07T06:02:02;4.70;99.90
10536;DHT22;5316;49.538;8.352;2022-12-07T06:04:31;4.70;99.90
10536;DHT22;5316;49.538;8.352;2022-12-07T06:06:58;4.80;99.90
10536;DHT22;5316;49.538;8.352;2022-12-07T06:09:26;4.80;99.90
10536;DHT22;5316;49.538;8.352;2022-12-07T06:11:54;4.80;99.90
10536;DHT22;5316;49.538;8.352;2022-12-07T06:14:51;4.80;99.90
10536;DHT22;5316;49.538;8.352;2022-12-07T06:17:18;4.80;99.90
10536;DHT22;5316;49.538;8.352;2022-12-07T06:19:45;4.80;99.90
10536;DHT22;5316;49.538;8.352;2022-12-07T06:22:12;4.80;99.90
10536;DHT22;5316;49.538;8.352;2022-12-07T06:24:39;4.80;99.90
10536;DHT22;5316;49.538;8.352;2022-12-07T06:27:06;4.80;99.90
10536;DHT22;5316;49.538;8.352;2022-12-07T06:29:33;4.80;99.90
10536;DHT22;5316;49.538;8.352;2022-12-07T06:32:02;4.70;99.90
10536;DHT22;5316;49.538;8.352;2022-12-07T06:34:30;4.70;99.90
10536;DHT22;5316;49.538;8.352;2022-12-07T06:36:57;4.70;99.90
10536;DHT22;5316;49.538;8.352;2022-12-07T06:39:25;4.70;99.90
10536;DHT22;5316;49.538;8.352;2022-12-07T06:41:52;4.70;99.90
10536;DHT22;5316;49.538;8.352;2022-12-07T06:44:20;4.70;99.90
10536;DHT22;5316;49.538;8.352;2022-12-07T06:46:48;4.70;99.90
10536;DHT22;5316;49.538;8.352;2022-12-07T06:49:17;4.70;99.90
10536;DHT22;5316;49.538;8.352;2022-12-07T06:51:45;4.70;99.90
10536;DHT22;5316;49.538;8.352;2022-12-07T06:54:14;4.70;99.90
10536;DHT22;5316;49.538;8.352;2022-12-07T06:56:41;4.70;99.90
10536;DHT22;5316;49.538;8.352;2022-12-07T06:59:08;4.70;99.90
10536;DHT22;5316;49.538;8.352;2022-12-07T07:01:35;4.80;99.90
10536;DHT22;5316;49.538;8.352;2022-12-07T07:04:03;4.70;99.90
10536;DHT22;5316;49.538;8.352;2022-12-07T07:06:31;4.80;99.90
10536;DHT22;5316;49.538;8.352;2022-12-07T07:08:58;4.70;99.90
10536;DHT22;5316;49.538;8.352;2022-12-07T07:11:25;4.80;99.90
10536;DHT22;5316;49.538;8.352;2022-12-07T07:13:52;4.80;99.90
10536;DHT22;5316;49.538;8.352;2022-12-07T07:16:19;4.80;99.90
10536;DHT22;5316;49.538;8.352;2022-12-07T07:18:46;4.80;99.90
10536;DHT22;5316;49.538;8.352;2022-12-07T07:21:12;4.80;99.90
10536;DHT22;5316;49.538;8.352;2022-12-07T07:23:40;4.80;99.90
10536;DHT22;5316;49.538;8.352;2022-12-07T07:26:07;4.80;99.90
10536;DHT22;5316;49.538;8.352;2022-12-07T07:28:34;4.80;99.90
10536;DHT22;5316;49.538;8.352;2022-12-07T07:31:01;4.80;99.90
10536;DHT22;5316;49.538;8.352;2022-12-07T07:33:28;4.80;99.90
10536;DHT22;5316;49.538;8.352;2022-12-07T07:35:54;4.80;99.90
10536;DHT22;5316;49.538;8.352;2022-12-07T07:38:21;4.80;99.90
10536;DHT22;5316;49.538;8.352;2022-12-07T07:40:50;4.80;99.90
10536;DHT22;5316;49.538;8.352;2022-12-07T07:43:16;4.90;99.90
10536;DHT22;5316;49.538;8.352;2022-12-07T07:45:44;4.90;99.90
10536;DHT22;5316;49.538;8.352;2022-12-07T07:48:11;4.90;99.90
10536;DHT22;5316;49.538;8.352;2022-12-07T07:50:38;4.90;99.90
10536;DHT22;5316;49.538;8.352;2022-12-07T07:53:04;4.90;99.90
10536;DHT22;5316;49.538;8.352;2022-12-07T07:55:31;5.00;99.90
10536;DHT22;5316;49.538;8.352;2022-12-07T07:57:59;5.00;99.90
10536;DHT22;5316;49.538;8.352;2022-12-07T08:00:26;5.00;99.90
10536;DHT22;5316;49.538;8.352;2022-12-07T08:02:53;4.90;99.90
10536;DHT22;5316;49.538;8.352;2022-12-07T08:05:20;5.00;99.90
10536;DHT22;5316;49.538;8.352;2022-12-07T08:07:47;5.00;99.90
10536;DHT22;5316;49.538;8.352;2022-12-07T08:10:14;5.10;99.90
10536;DHT22;5316;49.538;8.352;2022-12-07T08:12:42;5.10;99.90
10536;DHT22;5316;49.538;8.352;2022-12-07T08:15:30;5.10;99.90
10536;DHT22;5316;49.538;8.352;2022-12-07T08:17:57;5.20;99.90
10536;DHT22;5316;49.538;8.352;2022-12-07T08:20:24;5.20;99.90
10536;DHT22;5316;49.538;8.352;2022-12-07T08:22:51;5.20;99.90
10536;DHT22;5316;49.538;8.352;2022-12-07T08:25:18;5.20;99.90
10536;DHT22;5316;49.538;8.352;2022-12-07T08:27:45;5.20;99.90
10536;DHT22;5316;49.538;8.352;2022-12-07T08:30:12;5.20;99.90
10536;DHT22;5316;49.538;8.352;2022-12-07T08:32:40;5.20;99.90
10536;DHT22;5316;49.538;8.352;2022-12-07T08:35:07;5.20;99.90
10536;DHT22;5316;49.538;8.352;2022-12-07T08:37:35;5.20;99.90
10536;DHT22;5316;49.538;8.352;2022-12-07T08:40:02;5.20;99.90
10536;DHT22;5316;49.538;8.352;2022-12-07T08:42:28;5.30;99.90
10536;DHT22;5316;49.538;8.352;2022-12-07T08:45:04;5.30;99.90
10536;DHT22;5316;49.538;8.352;2022-12-07T08:47:32;5.30;99.90
10536;DHT22;5316;49.538;8.352;2022-12-07T08:50:02;5.40;99.90
10536;DHT22;5316;49.538;8.352;2022-12-07T08:52:29;5.40;99.90
10536;DHT22;5316;49.538;8.352;2022-12-07T08:54:57;5.50;99.90
10536;DHT22;5316;49.538;8.352;2022-12-07T08:57:24;5.50;99.90
10536;DHT22;5316;49.538;8.352;2022-12-07T08:59:54;5.60;99.90
10536;DHT22;5316;49.538;8.352;2022-12-07T09:02:20;5.60;99.90
10536;DHT22;5316;49.538;8.352;2022-12-07T09:04:47;5.70;99.90
10536;DHT22;5316;49.538;8.352;2022-12-07T09:07:15;5.80;99.90
10536;DHT22;5316;49.538;8.352;2022-12-07T09:09:42;5.80;99.90
10536;DHT22;5316;49.538;8.352;2022-12-07T09:12:09;5.90;99.90
10536;DHT22;5316;49.538;8.352;2022-12-07T09:14:36;5.90;99.90
10536;DHT22;5316;49.538;8.352;2022-12-07T09:17:07;5.90;99.90
10536;DHT22;5316;49.538;8.352;2022-12-07T09:19:34;6.00;99.90
10536;DHT22;5316;49.538;8.352;2022-12-07T09:22:01;6.00;99.90
10536;DHT22;5316;49.538;8.352;2022-12-07T09:24:29;5.90;99.90
10536;DHT22;5316;49.538;8.352;2022-12-07T09:26:56;6.00;99.90
10536;DHT22;5316;49.538;8.352;2022-12-07T09:29:23;6.10;99.90
10536;DHT22;5316;49.538;8.352;2022-12-07T09:31:50;6.10;99.90
10536;DHT22;5316;49.538;8.352;2022-12-07T09:34:17;6.10;99.90
10536;DHT22;5316;49.538;8.352;2022-12-07T09:36:44;6.10;99.90
10536;DHT22;5316;49.538;8.352;2022-12-07T09:39:11;6.10;99.90
10536;DHT22;5316;49.538;8.352;2022-12-07T09:41:40;6.10;99.90
10536;DHT22;5316;49.538;8.352;2022-12-07T09:44:11;6.20;99.90
10536;DHT22;5316;49.538;8.352;2022-12-07T09:46:41;6.20;99.90
10536;DHT22;5316;49.538;8.352;2022-12-07T09:49:12;6.20;99.90
10536;DHT22;5316;49.538;8.352;2022-12-07T09:51:40;6.20;99.90
10536;DHT22;5316;49.538;8.352;2022-12-07T09:54:08;6.20;99.90
10536;DHT22;5316;49.538;8.352;2022-12-07T09:56:40;6.20;99.90
10536;DHT22;5316;49.538;8.352;2022-12-07T09:59:13;6.10;99.90
10536;DHT22;5316;49.538;8.352;2022-12-07T10:01:43;6.10;99.90
10536;DHT22;5316;49.538;8.352;2022-12-07T10:04:13;6.20;99.90
10536;DHT22;5316;49.538;8.352;2022-12-07T10:06:42;6.20;99.90
10536;DHT22;5316;49.538;8.352;2022-12-07T10:09:10;6.20;99.90
10536;DHT22;5316;49.538;8.352;2022-12-07T10:12:04;6.20;99.90
10536;DHT22;5316;49.538;8.352;2022-12-07T10:14:33;6.20;99.90
10536;DHT22;5316;49.538;8.352;2022-12-07T10:17:02;6.20;99.90
10536;DHT22;5316;49.538;8.352;2022-12-07T10:19:30;6.20;99.90
10536;DHT22;5316;49.538;8.352;2022-12-07T10:22:04;6.10;99.90
10536;DHT22;5316;49.538;8.352;2022-12-07T10:24:31;6.10;99.90
10536;DHT22;5316;49.538;8.352;2022-12-07T10:26:58;6.10;99.90
10536;DHT22;5316;49.538;8.352;2022-12-07T10:29:30;6.00;99.90
10536;DHT22;5316;49.538;8.352;2022-12-07T10:31:59;6.00;99.90
10536;DHT22;5316;49.538;8.352;2022-12-07T10:34:27;6.00;99.90
10536;DHT22;5316;49.538;8.352;2022-12-07T10:37:14;6.00;99.90
10536;DHT22;5316;49.538;8.352;2022-12-07T10:39:43;6.10;99.90
10536;DHT22;5316;49.538;8.352;2022-12-07T10:42:17;6.10;99.90
10536;DHT22;5316;49.538;8.352;2022-12-07T10:44:46;6.20;99.90
10536;DHT22;5316;49.538;8.352;2022-12-07T10:47:28;6.20;99.90
10536;DHT22;5316;49.538;8.352;2022-12-07T10:50:16;6.30;99.90
10536;DHT22;5316;49.538;8.352;2022-12-07T10:56:11;6.30;99.90
10536;DHT22;5316;49.538;8.352;2022-12-07T10:58:53;6.30;99.90
10536;DHT22;5316;49.538;8.352;2022-12-07T11:01:26;6.30;99.90
10536;DHT22;5316;49.538;8.352;2022-12-07T11:04:11;6.30;99.90
10536;DHT22;5316;49.538;8.352;2022-12-07T11:06:47;6.30;99.90
10536;DHT22;5316;49.538;8.352;2022-12-07T11:09:49;6.30;99.90
10536;DHT22;5316;49.538;8.352;2022-12-07T11:12:27;6.30;99.90
10536;DHT22;5316;49.538;8.352;2022-12-07T11:14:58;6.30;99.90
10536;DHT22;5316;49.538;8.352;2022-12-07T11:17:36;6.20;99.90
10536;DHT22;5316;49.538;8.352;2022-12-07T11:20:15;6.20;99.90
10536;DHT22;5316;49.538;8.352;2022-12-07T11:22:48;6.20;99.90
10536;DHT22;5316;49.538;8.352;2022-12-07T11:25:23;6.30;99.90
10536;DHT22;5316;49.538;8.352;2022-12-07T11:28:06;6.40;99.90
10536;DHT22;5316;49.538;8.352;2022-12-07T11:30:42;6.40;99.90
10536;DHT22;5316;49.538;8.352;2022-12-07T11:33:21;6.40;99.90
10536;DHT22;5316;49.538;8.352;2022-12-07T11:35:57;6.50;99.90
10536;DHT22;5316;49.538;8.352;2022-12-07T11:38:37;6.50;99.90
10536;DHT22;5316;49.538;8.352;2022-12-07T11:41:09;6.50;99.90
10536;DHT22;5316;49.538;8.352;2022-12-07T11:43:53;6.50;99.90
10536;DHT22;5316;49.538;8.352;2022-12-07T11:46:24;6.50;99.90
10536;DHT22;5316;49.538;8.352;2022-12-07T11:48:58;6.50;99.90
10536;DHT22;5316;49.538;8.352;2022-12-07T11:51:30;6.50;99.90
10536;DHT22;5316;49.538;8.352;2022-12-07T11:54:02;6.50;99.90
10536;DHT22;5316;49.538;8.352;2022-12-07T11:56:30;6.50;99.90
10536;DHT22;5316;49.538;8.352;2022-12-07T11:59:08;6.50;99.90
10536;DHT22;5316;49.538;8.352;2022-12-07T12:01:45;6.50;99.90
10536;DHT22;5316;49.538;8.352;2022-12-07T12:04:27;6.60;99.90
10536;DHT22;5316;49.538;8.352;2022-12-07T12:06:55;6.60;99.90
10536;DHT22;5316;49.538;8.352;2022-12-07T12:09:26;6.60;99.90
10536;DHT22;5316;49.538;8.352;2022-12-07T12:12:06;6.60;99.90
10536;DHT22;5316;49.538;8.352;2022-12-07T12:14:46;6.60;99.90
10536;DHT22;5316;49.538;8.352;2022-12-07T12:17:36;6.50;99.90
10536;DHT22;5316;49.538;8.352;2022-12-07T12:20:18;6.50;99.90
10536;DHT22;5316;49.538;8.352;2022-12-07T12:22:48;6.60;99.90
10536;DHT22;5316;49.538;8.352;2022-12-07T12:25:20;6.60;99.90
10536;DHT22;5316;49.538;8.352;2022-12-07T12:27:49;6.60;99.90
10536;DHT22;5316;49.538;8.352;2022-12-07T12:30:32;6.60;99.90
10536;DHT22;5316;49.538;8.352;2022-12-07T12:33:12;6.60;99.90
10536;DHT22;5316;49.538;8.352;2022-12-07T12:35:41;6.60;99.90
10536;DHT22;5316;49.538;8.352;2022-12-07T12:38:28;6.60;99.90
10536;DHT22;5316;49.538;8.352;2022-12-07T12:40:59;6.60;99.90
10536;DHT22;5316;49.538;8.352;2022-12-07T12:43:44;6.70;99.90
10536;DHT22;5316;49.538;8.352;2022-12-07T12:46:51;6.70;99.90
10536;DHT22;5316;49.538;8.352;2022-12-07T12:49:43;6.60;99.90
10536;DHT22;5316;49.538;8.352;2022-12-07T12:58:32;6.60;99.90
10536;DHT22;5316;49.538;8.352;2022-12-07T13:01:37;6.60;99.90
10536;DHT22;5316;49.538;8.352;2022-12-07T13:04:18;6.70;99.90
10536;DHT22;5316;49.538;8.352;2022-12-07T13:06:48;6.70;99.90
10536;DHT22;5316;49.538;8.352;2022-12-07T13:09:26;6.80;99.90
10536;DHT22;5316;49.538;8.352;2022-12-07T13:12:02;6.80;99.90
10536;DHT22;5316;49.538;8.352;2022-12-07T13:14:54;6.80;99.90
10536;DHT22;5316;49.538;8.352;2022-12-07T13:17:59;6.90;99.90
10536;DHT22;5316;49.538;8.352;2022-12-07T13:23:30;7.00;99.90
10536;DHT22;5316;49.538;8.352;2022-12-07T13:26:06;7.10;99.90
10536;DHT22;5316;49.538;8.352;2022-12-07T13:28:38;7.20;99.90
10536;DHT22;5316;49.538;8.352;2022-12-07T13:31:26;7.20;99.90
10536;DHT22;5316;49.538;8.352;2022-12-07T13:33:57;7.10;99.90
10536;DHT22;5316;49.538;8.352;2022-12-07T13:36:25;7.20;99.90
10536;DHT22;5316;49.538;8.352;2022-12-07T13:38:55;7.20;99.90
10536;DHT22;5316;49.538;8.352;2022-12-07T13:41:23;7.10;99.90
10536;DHT22;5316;49.538;8.352;2022-12-07T13:43:58;7.10;99.90
10536;DHT22;5316;49.538;8.352;2022-12-07T13:46:36;7.00;99.90
10536;DHT22;5316;49.538;8.352;2022-12-07T13:49:17;7.00;99.90
10536;DHT22;5316;49.538;8.352;2022-12-07T13:51:44;7.00;99.90
10536;DHT22;5316;49.538;8.352;2022-12-07T13:54:13;6.90;99.90
10536;DHT22;5316;49.538;8.352;2022-12-07T13:56:40;6.90;99.90
10536;DHT22;5316;49.538;8.352;2022-12-07T13:59:13;6.90;99.90
10536;DHT22;5316;49.538;8.352;2022-12-07T14:01:41;6.80;99.90
10536;DHT22;5316;49.538;8.352;2022-12-07T14:04:33;6.70;99.90
10536;DHT22;5316;49.538;8.352;2022-12-07T14:09:54;6.80;99.90
10536;DHT22;5316;49.538;8.352;2022-12-07T14:12:21;6.70;99.90
10536;DHT22;5316;49.538;8.352;2022-12-07T14:14:49;6.80;99.90
10536;DHT22;5316;49.538;8.352;2022-12-07T14:17:19;6.70;99.90
10536;DHT22;5316;49.538;8.352;2022-12-07T14:19:50;6.70;99.90
10536;DHT22;5316;49.538;8.352;2022-12-07T14:22:27;6.70;99.90
10536;DHT22;5316;49.538;8.352;2022-12-07T14:25:02;6.70;99.90
10536;DHT22;5316;49.538;8.352;2022-12-07T14:27:38;6.70;99.90
10536;DHT22;5316;49.538;8.352;2022-12-07T14:30:15;6.70;99.90
10536;DHT22;5316;49.538;8.352;2022-12-07T14:32:43;6.60;99.90
10536;DHT22;5316;49.538;8.352;2022-12-07T14:35:15;6.60;99.90
10536;DHT22;5316;49.538;8.352;2022-12-07T14:37:45;6.60;99.90
10536;DHT22;5316;49.538;8.352;2022-12-07T14:40:13;6.60;99.90
10536;DHT22;5316;49.538;8.352;2022-12-07T14:42:43;6.60;99.90
10536;DHT22;5316;49.538;8.352;2022-12-07T14:45:15;6.60;99.90
10536;DHT22;5316;49.538;8.352;2022-12-07T14:47:43;6.60;99.90
10536;DHT22;5316;49.538;8.352;2022-12-07T14:50:12;6.50;99.90
10536;DHT22;5316;49.538;8.352;2022-12-07T14:52:39;6.50;99.90
10536;DHT22;5316;49.538;8.352;2022-12-07T14:55:13;6.50;99.90
10536;DHT22;5316;49.538;8.352;2022-12-07T15:29:21;6.20;99.90
10536;DHT22;5316;49.538;8.352;2022-12-07T15:31:49;6.10;99.90
10536;DHT22;5316;49.538;8.352;2022-12-07T15:34:16;6.10;99.90
10536;DHT22;5316;49.538;8.352;2022-12-07T15:36:43;6.10;99.90
10536;DHT22;5316;49.538;8.352;2022-12-07T15:39:15;6.20;99.90
10536;DHT22;5316;49.538;8.352;2022-12-07T15:41:42;6.10;99.90
10536;DHT22;5316;49.538;8.352;2022-12-07T15:44:11;6.10;99.90
10536;DHT22;5316;49.538;8.352;2022-12-07T15:46:57;6.10;99.90
10536;DHT22;5316;49.538;8.352;2022-12-07T15:49:24;6.10;99.90
10536;DHT22;5316;49.538;8.352;2022-12-07T15:51:51;6.10;99.90
10536;DHT22;5316;49.538;8.352;2022-12-07T15:54:20;6.10;99.90
10536;DHT22;5316;49.538;8.352;2022-12-07T15:56:47;6.10;99.90
10536;DHT22;5316;49.538;8.352;2022-12-07T15:59:15;6.00;99.90
10536;DHT22;5316;49.538;8.352;2022-12-07T16:01:42;6.00;99.90
10536;DHT22;5316;49.538;8.352;2022-12-07T16:04:11;5.90;99.90
10536;DHT22;5316;49.538;8.352;2022-12-07T16:06:38;5.90;99.90
10536;DHT22;5316;49.538;8.352;2022-12-07T16:09:06;5.80;99.90
10536;DHT22;5316;49.538;8.352;2022-12-07T16:11:33;5.80;99.90
10536;DHT22;5316;49.538;8.352;2022-12-07T16:14:00;5.70;99.90
10536;DHT22;5316;49.538;8.352;2022-12-07T16:16:27;5.60;99.90
10536;DHT22;5316;49.538;8.352;2022-12-07T16:18:54;5.60;99.90
10536;DHT22;5316;49.538;8.352;2022-12-07T16:21:22;5.60;99.90
10536;DHT22;5316;49.538;8.352;2022-12-07T16:23:49;5.60;99.90
10536;DHT22;5316;49.538;8.352;2022-12-07T16:26:18;5.60;99.90
10536;DHT22;5316;49.538;8.352;2022-12-07T16:28:47;5.50;99.90
10536;DHT22;5316;49.538;8.352;2022-12-07T16:31:16;5.50;99.90
10536;DHT22;5316;49.538;8.352;2022-12-07T16:33:44;5.50;99.90
10536;DHT22;5316;49.538;8.352;2022-12-07T16:36:17;5.50;99.90
10536;DHT22;5316;49.538;8.352;2022-12-07T16:38:48;5.50;99.90
10536;DHT22;5316;49.538;8.352;2022-12-07T16:41:15;5.40;99.90
10536;DHT22;5316;49.538;8.352;2022-12-07T16:43:42;5.40;99.90
10536;DHT22;5316;49.538;8.352;2022-12-07T16:46:09;5.40;99.90
10536;DHT22;5316;49.538;8.352;2022-12-07T16:48:36;5.40;99.90
10536;DHT22;5316;49.538;8.352;2022-12-07T16:51:05;5.40;99.90
10536;DHT22;5316;49.538;8.352;2022-12-07T16:53:34;5.40;99.90
10536;DHT22;5316;49.538;8.352;2022-12-07T16:56:05;5.40;99.90
10536;DHT22;5316;49.538;8.352;2022-12-07T16:58:36;5.30;99.90
10536;DHT22;5316;49.538;8.352;2022-12-07T17:01:09;5.30;99.90
10536;DHT22;5316;49.538;8.352;2022-12-07T17:03:36;5.30;99.90
10536;DHT22;5316;49.538;8.352;2022-12-07T17:06:03;5.30;99.90
10536;DHT22;5316;49.538;8.352;2022-12-07T17:08:30;5.30;99.90
10536;DHT22;5316;49.538;8.352;2022-12-07T17:10:56;5.20;99.90